sensor_id;sensor_type;location;lat;lon;timestamp;temperature;humidity
28336;DHT22;15592;53.656;7.276;2022-10-23T00:01:13;10.90;99.90
28336;DHT22;15592;53.656;7.276;2022-10-23T00:03:39;10.90;99.90
28336;DHT22;15592;53.656;7.276;2022-10-23T00:06:05;10.80;99.90
28336;DHT22;15592;53.656;7.276;2022-10-23T00:08:31;10.80;99.90
28336;DHT22;15592;53.656;7.276;2022-10-23T00:10:57;10.80;99.90
28336;DHT22;15592;53.656;7.276;2022-10-23T00:13:22;10.80;99.90
28336;DHT22;15592;53.656;7.276;2022-10-23T00:15:48;10.80;99.90
28336;DHT22;15592;53.656;7.276;2022-10-23T00:18:13;10.70;99.90
28336;DHT22;15592;53.656;7.276;2022-10-23T00:20:39;10.70;99.90
28336;DHT22;15592;53.656;7.276;2022-10-23T00:23:05;10.70;99.90
28336;DHT22;15592;53.656;7.276;2022-10-23T00:25:30;10.70;99.90
28336;DHT22;15592;53.656;7.276;2022-10-23T00:27:58;10.70;99.90
28336;DHT22;15592;53.656;7.276;2022-10-23T00:30:24;10.70;99.90
28336;DHT22;15592;53.656;7.276;2022-10-23T00:32:49;10.70;99.90
28336;DHT22;15592;53.656;7.276;2022-10-23T00:35:15;10.70;99.90
28336;DHT22;15592;53.656;7.276;2022-10-23T00:37:41;10.80;99.90
28336;DHT22;15592;53.656;7.276;2022-10-23T00:40:07;10.80;99.90
28336;DHT22;15592;53.656;7.276;2022-10-23T00:42:33;10.80;99.90
28336;DHT22;15592;53.656;7.276;2022-10-23T00:47:34;10.80;99.90
28336;DHT22;15592;53.656;7.276;2022-10-23T00:49:59;10.80;99.90
28336;DHT22;15592;53.656;7.276;2022-10-23T00:52:26;10.80;99.90
28336;DHT22;15592;53.656;7.276;2022-10-23T00:54:52;10.80;99.90
28336;DHT22;15592;53.656;7.276;2022-10-23T00:57:18;10.80;99.90
28336;DHT22;15592;53.656;7.276;2022-10-23T00:59:44;10.80;99.90
28336;DHT22;15592;53.656;7.276;2022-10-23T01:02:09;10.80;99.90
28336;DHT22;15592;53.656;7.276;2022-10-23T01:04:36;10.80;99.90
28336;DHT22;15592;53.656;7.276;2022-10-23T01:07:07;10.80;99.90
28336;DHT22;15592;53.656;7.276;2022-10-23T01:09:51;10.90;99.90
28336;DHT22;15592;53.656;7.276;2022-10-23T01:16:05;10.90;99.90
28336;DHT22;15592;53.656;7.276;2022-10-23T01:18:20;10.90;99.90
28336;DHT22;15592;53.656;7.276;2022-10-23T01:21:07;10.90;99.90
28336;DHT22;15592;53.656;7.276;2022-10-23T01:23:56;10.90;99.90
28336;DHT22;15592;53.656;7.276;2022-10-23T01:32:43;10.80;99.90
28336;DHT22;15592;53.656;7.276;2022-10-23T01:35:15;10.80;99.90
28336;DHT22;15592;53.656;7.276;2022-10-23T01:37:46;10.80;99.90
28336;DHT22;15592;53.656;7.276;2022-10-23T01:40:23;10.80;99.90
28336;DHT22;15592;53.656;7.276;2022-10-23T01:42:55;10.80;99.90
28336;DHT22;15592;53.656;7.276;2022-10-23T01:45:30;10.80;99.90
28336;DHT22;15592;53.656;7.276;2022-10-23T01:48:00;10.80;99.90
28336;DHT22;15592;53.656;7.276;2022-10-23T01:50:27;10.80;99.90
28336;DHT22;15592;53.656;7.276;2022-10-23T01:52:53;10.80;99.90
28336;DHT22;15592;53.656;7.276;2022-10-23T01:55:19;10.80;99.90
28336;DHT22;15592;53.656;7.276;2022-10-23T01:57:46;10.70;99.90
28336;DHT22;15592;53.656;7.276;2022-10-23T02:00:15;10.70;99.90
28336;DHT22;15592;53.656;7.276;2022-10-23T02:02:42;10.70;99.90
28336;DHT22;15592;53.656;7.276;2022-10-23T02:05:21;10.60;99.90
28336;DHT22;15592;53.656;7.276;2022-10-23T02:07:48;10.60;99.90
28336;DHT22;15592;53.656;7.276;2022-10-23T02:10:14;10.50;99.90
28336;DHT22;15592;53.656;7.276;2022-10-23T02:13:06;10.50;99.90
28336;DHT22;15592;53.656;7.276;2022-10-23T02:15:45;10.50;99.90
28336;DHT22;15592;53.656;7.276;2022-10-23T02:20:56;10.50;99.90
28336;DHT22;15592;53.656;7.276;2022-10-23T02:23:32;10.50;99.90
28336;DHT22;15592;53.656;7.276;2022-10-23T02:26:13;10.50;99.90
28336;DHT22;15592;53.656;7.276;2022-10-23T02:29:30;10.50;99.90
28336;DHT22;15592;53.656;7.276;2022-10-23T02:31:30;10.50;99.90
28336;DHT22;15592;53.656;7.276;2022-10-23T02:33:56;10.50;99.90
28336;DHT22;15592;53.656;7.276;2022-10-23T02:36:21;10.40;99.90
28336;DHT22;15592;53.656;7.276;2022-10-23T02:38:47;10.40;99.90
28336;DHT22;15592;53.656;7.276;2022-10-23T02:44:21;10.40;99.90
28336;DHT22;15592;53.656;7.276;2022-10-23T02:46:59;10.40;99.90
28336;DHT22;15592;53.656;7.276;2022-10-23T02:54:41;10.40;99.90
28336;DHT22;15592;53.656;7.276;2022-10-23T02:57:21;10.40;99.90
28336;DHT22;15592;53.656;7.276;2022-10-23T03:02:37;10.40;99.90
28336;DHT22;15592;53.656;7.276;2022-10-23T03:05:07;10.30;99.90
28336;DHT22;15592;53.656;7.276;2022-10-23T03:07:33;10.40;99.90
28336;DHT22;15592;53.656;7.276;2022-10-23T03:09:59;10.30;99.90
28336;DHT22;15592;53.656;7.276;2022-10-23T03:12:24;10.30;99.90
28336;DHT22;15592;53.656;7.276;2022-10-23T03:14:50;10.30;99.90
28336;DHT22;15592;53.656;7.276;2022-10-23T03:17:16;10.30;99.90
28336;DHT22;15592;53.656;7.276;2022-10-23T03:19:41;10.30;99.90
28336;DHT22;15592;53.656;7.276;2022-10-23T03:22:07;10.20;99.90
28336;DHT22;15592;53.656;7.276;2022-10-23T03:24:32;10.20;99.90
28336;DHT22;15592;53.656;7.276;2022-10-23T03:26:58;10.20;99.90
28336;DHT22;15592;53.656;7.276;2022-10-23T03:29:23;10.10;99.90
28336;DHT22;15592;53.656;7.276;2022-10-23T03:31:49;10.10;99.90
28336;DHT22;15592;53.656;7.276;2022-10-23T03:34:15;10.10;99.90
28336;DHT22;15592;53.656;7.276;2022-10-23T03:36:40;10.10;99.90
28336;DHT22;15592;53.656;7.276;2022-10-23T03:39:06;10.10;99.90
28336;DHT22;15592;53.656;7.276;2022-10-23T03:41:32;10.00;99.90
28336;DHT22;15592;53.656;7.276;2022-10-23T03:43:57;10.00;99.90
28336;DHT22;15592;53.656;7.276;2022-10-23T03:46:23;10.00;99.90
28336;DHT22;15592;53.656;7.276;2022-10-23T03:48:49;10.00;99.90
28336;DHT22;15592;53.656;7.276;2022-10-23T03:51:14;9.90;99.90
28336;DHT22;15592;53.656;7.276;2022-10-23T03:53:40;9.80;99.90
28336;DHT22;15592;53.656;7.276;2022-10-23T03:56:06;9.80;99.90
28336;DHT22;15592;53.656;7.276;2022-10-23T03:58:31;9.80;99.90
28336;DHT22;15592;53.656;7.276;2022-10-23T04:00:57;9.70;99.90
28336;DHT22;15592;53.656;7.276;2022-10-23T04:03:23;9.70;99.90
28336;DHT22;15592;53.656;7.276;2022-10-23T04:05:49;9.70;99.90
28336;DHT22;15592;53.656;7.276;2022-10-23T04:08:14;9.60;99.90
28336;DHT22;15592;53.656;7.276;2022-10-23T04:10:40;9.60;99.90
28336;DHT22;15592;53.656;7.276;2022-10-23T04:13:05;9.60;99.90
28336;DHT22;15592;53.656;7.276;2022-10-23T04:15:31;9.60;99.90
28336;DHT22;15592;53.656;7.276;2022-10-23T04:17:57;9.60;99.90
28336;DHT22;15592;53.656;7.276;2022-10-23T04:20:22;9.60;99.90
28336;DHT22;15592;53.656;7.276;2022-10-23T04:22:48;9.60;99.90
28336;DHT22;15592;53.656;7.276;2022-10-23T04:25:14;9.50;99.90
28336;DHT22;15592;53.656;7.276;2022-10-23T04:27:41;9.50;99.90
28336;DHT22;15592;53.656;7.276;2022-10-23T04:30:07;9.60;99.90
28336;DHT22;15592;53.656;7.276;2022-10-23T04:32:33;9.60;99.90
28336;DHT22;15592;53.656;7.276;2022-10-23T04:34:58;9.60;99.90
28336;DHT22;15592;53.656;7.276;2022-10-23T04:37:24;9.60;99.90
28336;DHT22;15592;53.656;7.276;2022-10-23T04:39:50;9.60;99.90
28336;DHT22;15592;53.656;7.276;2022-10-23T04:42:15;9.60;99.90
28336;DHT22;15592;53.656;7.276;2022-10-23T04:44:41;9.60;99.90
28336;DHT22;15592;53.656;7.276;2022-10-23T04:47:06;9.60;99.90
28336;DHT22;15592;53.656;7.276;2022-10-23T04:49:32;9.60;99.90
28336;DHT22;15592;53.656;7.276;2022-10-23T04:51:58;9.60;99.90
28336;DHT22;15592;53.656;7.276;2022-10-23T04:54:23;9.60;99.90
28336;DHT22;15592;53.656;7.276;2022-10-23T04:56:49;9.60;99.90
28336;DHT22;15592;53.656;7.276;2022-10-23T04:59:14;9.60;99.90
28336;DHT22;15592;53.656;7.276;2022-10-23T05:01:40;9.60;99.90
28336;DHT22;15592;53.656;7.276;2022-10-23T05:04:06;9.60;99.90
28336;DHT22;15592;53.656;7.276;2022-10-23T05:06:31;9.70;99.90
28336;DHT22;15592;53.656;7.276;2022-10-23T05:08:57;9.70;99.90
28336;DHT22;15592;53.656;7.276;2022-10-23T05:11:23;9.70;99.90
28336;DHT22;15592;53.656;7.276;2022-10-23T05:13:49;9.80;99.90
28336;DHT22;15592;53.656;7.276;2022-10-23T05:16:43;9.80;99.90
28336;DHT22;15592;53.656;7.276;2022-10-23T05:19:14;9.80;99.90
28336;DHT22;15592;53.656;7.276;2022-10-23T05:21:40;9.70;99.90
28336;DHT22;15592;53.656;7.276;2022-10-23T05:24:06;9.70;99.90
28336;DHT22;15592;53.656;7.276;2022-10-23T05:26:32;9.70;99.90
28336;DHT22;15592;53.656;7.276;2022-10-23T05:28:57;9.70;99.90
28336;DHT22;15592;53.656;7.276;2022-10-23T05:31:24;9.70;99.90
28336;DHT22;15592;53.656;7.276;2022-10-23T05:33:51;9.70;99.90
28336;DHT22;15592;53.656;7.276;2022-10-23T05:36:19;9.60;99.90
28336;DHT22;15592;53.656;7.276;2022-10-23T05:38:45;9.60;99.90
28336;DHT22;15592;53.656;7.276;2022-10-23T05:41:10;9.60;99.90
28336;DHT22;15592;53.656;7.276;2022-10-23T05:43:36;9.60;99.90
28336;DHT22;15592;53.656;7.276;2022-10-23T05:46:05;9.60;99.90
28336;DHT22;15592;53.656;7.276;2022-10-23T05:48:32;9.50;99.90
28336;DHT22;15592;53.656;7.276;2022-10-23T05:51:09;9.50;99.90
28336;DHT22;15592;53.656;7.276;2022-10-23T05:53:35;9.50;99.90
28336;DHT22;15592;53.656;7.276;2022-10-23T05:56:05;9.50;99.90
28336;DHT22;15592;53.656;7.276;2022-10-23T05:58:31;9.50;99.90
28336;DHT22;15592;53.656;7.276;2022-10-23T06:00:57;9.40;99.90
28336;DHT22;15592;53.656;7.276;2022-10-23T06:03:23;9.50;99.90
28336;DHT22;15592;53.656;7.276;2022-10-23T06:05:51;9.50;99.90
28336;DHT22;15592;53.656;7.276;2022-10-23T06:08:17;9.50;99.90
28336;DHT22;15592;53.656;7.276;2022-10-23T06:10:43;9.60;99.90
28336;DHT22;15592;53.656;7.276;2022-10-23T06:13:08;9.60;99.90
28336;DHT22;15592;53.656;7.276;2022-10-23T06:15:34;9.60;99.90
28336;DHT22;15592;53.656;7.276;2022-10-23T06:18:01;9.60;99.90
28336;DHT22;15592;53.656;7.276;2022-10-23T06:20:27;9.60;99.90
28336;DHT22;15592;53.656;7.276;2022-10-23T06:22:53;9.70;99.90
28336;DHT22;15592;53.656;7.276;2022-10-23T06:25:19;9.60;99.90
28336;DHT22;15592;53.656;7.276;2022-10-23T06:27:44;9.60;99.90
28336;DHT22;15592;53.656;7.276;2022-10-23T06:30:11;9.60;99.90
28336;DHT22;15592;53.656;7.276;2022-10-23T06:32:37;9.70;99.90
28336;DHT22;15592;53.656;7.276;2022-10-23T06:35:03;9.70;99.90
28336;DHT22;15592;53.656;7.276;2022-10-23T06:37:28;9.60;99.90
28336;DHT22;15592;53.656;7.276;2022-10-23T06:39:54;9.60;99.90
28336;DHT22;15592;53.656;7.276;2022-10-23T06:42:20;9.70;99.90
28336;DHT22;15592;53.656;7.276;2022-10-23T06:44:45;9.70;99.90
28336;DHT22;15592;53.656;7.276;2022-10-23T06:47:11;9.70;99.90
28336;DHT22;15592;53.656;7.276;2022-10-23T06:49:38;9.70;99.90
28336;DHT22;15592;53.656;7.276;2022-10-23T06:52:04;9.70;99.90
28336;DHT22;15592;53.656;7.276;2022-10-23T06:54:30;9.70;99.90
28336;DHT22;15592;53.656;7.276;2022-10-23T06:56:58;9.70;99.90
28336;DHT22;15592;53.656;7.276;2022-10-23T06:59:56;9.70;99.90
28336;DHT22;15592;53.656;7.276;2022-10-23T07:02:22;9.70;99.90
28336;DHT22;15592;53.656;7.276;2022-10-23T07:04:47;9.80;99.90
28336;DHT22;15592;53.656;7.276;2022-10-23T07:07:13;9.80;99.90
28336;DHT22;15592;53.656;7.276;2022-10-23T07:09:38;9.80;99.90
28336;DHT22;15592;53.656;7.276;2022-10-23T07:12:10;9.80;99.90
28336;DHT22;15592;53.656;7.276;2022-10-23T07:14:36;9.90;99.90
28336;DHT22;15592;53.656;7.276;2022-10-23T07:17:04;9.90;99.90
28336;DHT22;15592;53.656;7.276;2022-10-23T07:19:30;9.90;99.90
28336;DHT22;15592;53.656;7.276;2022-10-23T07:21:56;10.00;99.90
28336;DHT22;15592;53.656;7.276;2022-10-23T07:24:21;10.00;99.90
28336;DHT22;15592;53.656;7.276;2022-10-23T07:30:10;10.00;99.90
28336;DHT22;15592;53.656;7.276;2022-10-23T07:32:35;10.10;99.90
28336;DHT22;15592;53.656;7.276;2022-10-23T07:35:01;10.10;99.90
28336;DHT22;15592;53.656;7.276;2022-10-23T07:37:28;10.20;99.90
28336;DHT22;15592;53.656;7.276;2022-10-23T07:39:54;10.20;99.90
28336;DHT22;15592;53.656;7.276;2022-10-23T07:42:20;10.30;99.90
28336;DHT22;15592;53.656;7.276;2022-10-23T07:44:45;10.30;99.90
28336;DHT22;15592;53.656;7.276;2022-10-23T07:47:11;10.30;99.90
28336;DHT22;15592;53.656;7.276;2022-10-23T07:49:36;10.40;99.90
28336;DHT22;15592;53.656;7.276;2022-10-23T07:52:04;10.40;99.90
28336;DHT22;15592;53.656;7.276;2022-10-23T07:54:30;10.40;99.90
28336;DHT22;15592;53.656;7.276;2022-10-23T07:56:55;10.50;99.90
28336;DHT22;15592;53.656;7.276;2022-10-23T07:59:21;10.50;99.90
28336;DHT22;15592;53.656;7.276;2022-10-23T08:01:46;10.50;99.90
28336;DHT22;15592;53.656;7.276;2022-10-23T08:04:13;10.60;99.90
28336;DHT22;15592;53.656;7.276;2022-10-23T08:06:38;10.70;99.90
28336;DHT22;15592;53.656;7.276;2022-10-23T08:09:04;10.70;99.90
28336;DHT22;15592;53.656;7.276;2022-10-23T08:11:30;10.80;99.90
28336;DHT22;15592;53.656;7.276;2022-10-23T08:14:00;10.80;99.90
28336;DHT22;15592;53.656;7.276;2022-10-23T08:16:29;10.80;99.90
28336;DHT22;15592;53.656;7.276;2022-10-23T08:18:55;10.90;99.90
28336;DHT22;15592;53.656;7.276;2022-10-23T08:21:21;10.90;99.90
28336;DHT22;15592;53.656;7.276;2022-10-23T08:23:47;11.00;99.90
28336;DHT22;15592;53.656;7.276;2022-10-23T08:26:13;11.00;99.90
28336;DHT22;15592;53.656;7.276;2022-10-23T08:28:39;11.10;99.90
28336;DHT22;15592;53.656;7.276;2022-10-23T08:31:09;11.10;99.90
28336;DHT22;15592;53.656;7.276;2022-10-23T08:33:36;11.20;99.90
28336;DHT22;15592;53.656;7.276;2022-10-23T08:36:01;11.30;99.90
28336;DHT22;15592;53.656;7.276;2022-10-23T08:38:27;11.40;99.90
28336;DHT22;15592;53.656;7.276;2022-10-23T08:40:53;11.40;99.90
28336;DHT22;15592;53.656;7.276;2022-10-23T08:43:38;11.40;99.90
28336;DHT22;15592;53.656;7.276;2022-10-23T08:46:11;11.50;99.90
28336;DHT22;15592;53.656;7.276;2022-10-23T08:48:46;11.60;99.90
28336;DHT22;15592;53.656;7.276;2022-10-23T08:51:36;11.70;99.90
28336;DHT22;15592;53.656;7.276;2022-10-23T08:54:33;11.70;99.90
28336;DHT22;15592;53.656;7.276;2022-10-23T08:57:01;11.80;99.90
28336;DHT22;15592;53.656;7.276;2022-10-23T08:59:29;11.90;99.90
28336;DHT22;15592;53.656;7.276;2022-10-23T09:04:32;12.00;99.90
28336;DHT22;15592;53.656;7.276;2022-10-23T09:12:42;12.10;99.90
28336;DHT22;15592;53.656;7.276;2022-10-23T09:17:43;12.20;99.90
28336;DHT22;15592;53.656;7.276;2022-10-23T09:20:21;12.30;99.90
28336;DHT22;15592;53.656;7.276;2022-10-23T09:22:58;12.30;99.90
28336;DHT22;15592;53.656;7.276;2022-10-23T09:25:27;12.30;99.90
28336;DHT22;15592;53.656;7.276;2022-10-23T09:27:55;12.40;99.90
28336;DHT22;15592;53.656;7.276;2022-10-23T09:30:33;12.40;99.90
28336;DHT22;15592;53.656;7.276;2022-10-23T09:33:11;12.40;99.90
28336;DHT22;15592;53.656;7.276;2022-10-23T09:35:37;12.50;99.90
28336;DHT22;15592;53.656;7.276;2022-10-23T09:38:02;12.50;99.90
28336;DHT22;15592;53.656;7.276;2022-10-23T09:43:16;12.70;99.90
28336;DHT22;15592;53.656;7.276;2022-10-23T09:45:42;12.70;99.90
28336;DHT22;15592;53.656;7.276;2022-10-23T09:48:16;12.80;99.90
28336;DHT22;15592;53.656;7.276;2022-10-23T09:53:33;12.90;99.90
28336;DHT22;15592;53.656;7.276;2022-10-23T09:56:05;13.00;99.90
28336;DHT22;15592;53.656;7.276;2022-10-23T09:58:39;13.00;99.90
28336;DHT22;15592;53.656;7.276;2022-10-23T10:01:22;13.10;99.90
28336;DHT22;15592;53.656;7.276;2022-10-23T10:03:49;13.10;99.90
28336;DHT22;15592;53.656;7.276;2022-10-23T10:06:22;13.10;99.90
28336;DHT22;15592;53.656;7.276;2022-10-23T10:08:52;13.20;99.90
28336;DHT22;15592;53.656;7.276;2022-10-23T10:14:42;13.30;99.90
28336;DHT22;15592;53.656;7.276;2022-10-23T10:22:41;13.50;99.90
28336;DHT22;15592;53.656;7.276;2022-10-23T10:25:57;13.60;99.90
28336;DHT22;15592;53.656;7.276;2022-10-23T10:28:44;13.70;99.90
28336;DHT22;15592;53.656;7.276;2022-10-23T10:31:46;13.80;99.90
28336;DHT22;15592;53.656;7.276;2022-10-23T10:34:50;13.90;99.90
28336;DHT22;15592;53.656;7.276;2022-10-23T10:37:33;13.90;99.90
28336;DHT22;15592;53.656;7.276;2022-10-23T10:48:38;14.00;99.90
28336;DHT22;15592;53.656;7.276;2022-10-23T10:51:07;14.00;99.90
28336;DHT22;15592;53.656;7.276;2022-10-23T10:56:26;14.00;99.90
28336;DHT22;15592;53.656;7.276;2022-10-23T11:04:39;14.10;99.90
28336;DHT22;15592;53.656;7.276;2022-10-23T11:07:13;14.00;99.90
28336;DHT22;15592;53.656;7.276;2022-10-23T11:09:40;14.10;99.90
28336;DHT22;15592;53.656;7.276;2022-10-23T11:12:18;14.10;99.90
28336;DHT22;15592;53.656;7.276;2022-10-23T11:14:44;14.10;99.90
28336;DHT22;15592;53.656;7.276;2022-10-23T11:17:27;14.20;99.90
28336;DHT22;15592;53.656;7.276;2022-10-23T11:22:56;14.30;99.90
28336;DHT22;15592;53.656;7.276;2022-10-23T11:25:41;14.30;99.90
28336;DHT22;15592;53.656;7.276;2022-10-23T11:33:53;14.50;99.90
28336;DHT22;15592;53.656;7.276;2022-10-23T11:36:44;14.60;99.90
28336;DHT22;15592;53.656;7.276;2022-10-23T11:39:22;14.70;99.90
28336;DHT22;15592;53.656;7.276;2022-10-23T11:42:13;14.70;99.90
28336;DHT22;15592;53.656;7.276;2022-10-23T11:44:44;14.70;99.90
28336;DHT22;15592;53.656;7.276;2022-10-23T11:50:27;14.80;99.90
28336;DHT22;15592;53.656;7.276;2022-10-23T11:52:59;14.80;99.90
28336;DHT22;15592;53.656;7.276;2022-10-23T11:55:27;14.80;99.90
28336;DHT22;15592;53.656;7.276;2022-10-23T12:00:34;14.90;99.90
28336;DHT22;15592;53.656;7.276;2022-10-23T12:03:03;14.90;99.90
28336;DHT22;15592;53.656;7.276;2022-10-23T12:05:35;14.90;99.90
28336;DHT22;15592;53.656;7.276;2022-10-23T12:08:04;14.90;99.90
28336;DHT22;15592;53.656;7.276;2022-10-23T12:10:34;14.90;99.90
28336;DHT22;15592;53.656;7.276;2022-10-23T12:13:05;14.90;99.90
28336;DHT22;15592;53.656;7.276;2022-10-23T12:15:32;14.90;99.90
28336;DHT22;15592;53.656;7.276;2022-10-23T12:18:28;15.00;99.90
28336;DHT22;15592;53.656;7.276;2022-10-23T12:20:55;15.00;99.90
28336;DHT22;15592;53.656;7.276;2022-10-23T12:32:14;15.10;99.90
28336;DHT22;15592;53.656;7.276;2022-10-23T12:37:25;15.10;99.90
28336;DHT22;15592;53.656;7.276;2022-10-23T12:39:54;15.10;99.90
28336;DHT22;15592;53.656;7.276;2022-10-23T12:42:26;15.00;99.90
28336;DHT22;15592;53.656;7.276;2022-10-23T12:45:18;15.00;99.90
28336;DHT22;15592;53.656;7.276;2022-10-23T12:47:45;15.00;99.90
28336;DHT22;15592;53.656;7.276;2022-10-23T12:50:32;15.10;99.90
28336;DHT22;15592;53.656;7.276;2022-10-23T12:53:00;15.00;99.90
28336;DHT22;15592;53.656;7.276;2022-10-23T12:55:33;15.00;99.90
28336;DHT22;15592;53.656;7.276;2022-10-23T12:58:25;15.00;99.90
28336;DHT22;15592;53.656;7.276;2022-10-23T13:01:00;15.00;99.90
28336;DHT22;15592;53.656;7.276;2022-10-23T13:03:28;15.00;99.90
28336;DHT22;15592;53.656;7.276;2022-10-23T13:05:56;15.00;99.90
28336;DHT22;15592;53.656;7.276;2022-10-23T13:08:32;15.00;99.90
28336;DHT22;15592;53.656;7.276;2022-10-23T13:10:58;15.00;99.90
28336;DHT22;15592;53.656;7.276;2022-10-23T13:13:25;15.00;99.90
28336;DHT22;15592;53.656;7.276;2022-10-23T13:15:51;15.00;99.90
28336;DHT22;15592;53.656;7.276;2022-10-23T13:18:17;15.00;99.90
28336;DHT22;15592;53.656;7.276;2022-10-23T13:20:55;15.00;99.90
28336;DHT22;15592;53.656;7.276;2022-10-23T13:23:33;15.00;99.90
28336;DHT22;15592;53.656;7.276;2022-10-23T13:26:02;15.00;99.90
28336;DHT22;15592;53.656;7.276;2022-10-23T13:28:43;14.90;99.90
28336;DHT22;15592;53.656;7.276;2022-10-23T13:33:39;14.90;99.90
28336;DHT22;15592;53.656;7.276;2022-10-23T13:38:35;14.90;99.90
28336;DHT22;15592;53.656;7.276;2022-10-23T13:41:03;14.90;99.90
28336;DHT22;15592;53.656;7.276;2022-10-23T13:43:30;14.90;99.90
28336;DHT22;15592;53.656;7.276;2022-10-23T13:45:58;14.90;99.90
28336;DHT22;15592;53.656;7.276;2022-10-23T13:48:24;14.90;99.90
28336;DHT22;15592;53.656;7.276;2022-10-23T13:50:50;14.90;99.90
28336;DHT22;15592;53.656;7.276;2022-10-23T13:53:16;14.90;99.90
28336;DHT22;15592;53.656;7.276;2022-10-23T13:55:43;14.80;99.90
28336;DHT22;15592;53.656;7.276;2022-10-23T13:58:10;14.80;99.90
28336;DHT22;15592;53.656;7.276;2022-10-23T14:00:36;14.80;99.90
28336;DHT22;15592;53.656;7.276;2022-10-23T14:03:03;14.80;99.90
28336;DHT22;15592;53.656;7.276;2022-10-23T14:05:29;14.80;99.90
28336;DHT22;15592;53.656;7.276;2022-10-23T14:07:55;14.80;99.90
28336;DHT22;15592;53.656;7.276;2022-10-23T14:10:21;14.80;99.90
28336;DHT22;15592;53.656;7.276;2022-10-23T14:12:47;14.80;99.90
28336;DHT22;15592;53.656;7.276;2022-10-23T14:15:18;14.80;99.90
28336;DHT22;15592;53.656;7.276;2022-10-23T14:17:44;14.80;99.90
28336;DHT22;15592;53.656;7.276;2022-10-23T14:20:10;14.80;99.90
28336;DHT22;15592;53.656;7.276;2022-10-23T14:22:35;14.80;99.90
28336;DHT22;15592;53.656;7.276;2022-10-23T14:25:01;14.80;99.90
28336;DHT22;15592;53.656;7.276;2022-10-23T14:27:27;14.80;99.90
28336;DHT22;15592;53.656;7.276;2022-10-23T14:29:55;14.80;99.90
28336;DHT22;15592;53.656;7.276;2022-10-23T14:32:20;14.80;99.90
28336;DHT22;15592;53.656;7.276;2022-10-23T14:34:50;14.80;99.90
28336;DHT22;15592;53.656;7.276;2022-10-23T14:37:16;14.80;99.90
28336;DHT22;15592;53.656;7.276;2022-10-23T14:39:42;14.80;99.90
28336;DHT22;15592;53.656;7.276;2022-10-23T14:42:08;14.80;99.90
28336;DHT22;15592;53.656;7.276;2022-10-23T14:44:34;14.80;99.90
28336;DHT22;15592;53.656;7.276;2022-10-23T14:46:59;14.70;99.90
28336;DHT22;15592;53.656;7.276;2022-10-23T14:49:27;14.70;99.90
28336;DHT22;15592;53.656;7.276;2022-10-23T14:51:53;14.70;99.90
28336;DHT22;15592;53.656;7.276;2022-10-23T14:54:18;14.70;99.90
28336;DHT22;15592;53.656;7.276;2022-10-23T14:56:44;14.70;99.90
28336;DHT22;15592;53.656;7.276;2022-10-23T14:59:10;14.70;99.90
28336;DHT22;15592;53.656;7.276;2022-10-23T15:01:41;14.70;99.90
28336;DHT22;15592;53.656;7.276;2022-10-23T15:04:07;14.60;99.90
28336;DHT22;15592;53.656;7.276;2022-10-23T15:06:34;14.60;99.90
28336;DHT22;15592;53.656;7.276;2022-10-23T15:09:01;14.60;99.90
28336;DHT22;15592;53.656;7.276;2022-10-23T15:11:27;14.60;99.90
28336;DHT22;15592;53.656;7.276;2022-10-23T15:13:53;14.50;99.90
28336;DHT22;15592;53.656;7.276;2022-10-23T15:16:20;14.50;99.90
28336;DHT22;15592;53.656;7.276;2022-10-23T15:18:47;14.50;99.90
28336;DHT22;15592;53.656;7.276;2022-10-23T15:21:13;14.50;99.90
28336;DHT22;15592;53.656;7.276;2022-10-23T15:23:42;14.50;99.90
28336;DHT22;15592;53.656;7.276;2022-10-23T15:26:17;14.50;99.90
28336;DHT22;15592;53.656;7.276;2022-10-23T15:28:54;14.40;99.90
28336;DHT22;15592;53.656;7.276;2022-10-23T15:33:58;14.40;99.90
28336;DHT22;15592;53.656;7.276;2022-10-23T15:36:24;14.40;99.90
28336;DHT22;15592;53.656;7.276;2022-10-23T15:38:50;14.40;99.90
28336;DHT22;15592;53.656;7.276;2022-10-23T15:41:20;14.40;99.90
28336;DHT22;15592;53.656;7.276;2022-10-23T15:43:46;14.40;99.90
28336;DHT22;15592;53.656;7.276;2022-10-23T15:46:12;14.40;99.90
28336;DHT22;15592;53.656;7.276;2022-10-23T15:48:38;14.40;99.90
28336;DHT22;15592;53.656;7.276;2022-10-23T15:51:03;14.30;99.90
28336;DHT22;15592;53.656;7.276;2022-10-23T15:53:29;14.40;99.90
28336;DHT22;15592;53.656;7.276;2022-10-23T15:55:55;14.30;99.90
28336;DHT22;15592;53.656;7.276;2022-10-23T15:58:23;14.30;99.90
28336;DHT22;15592;53.656;7.276;2022-10-23T16:00:49;14.40;99.90
28336;DHT22;15592;53.656;7.276;2022-10-23T16:03:15;14.40;99.90
28336;DHT22;15592;53.656;7.276;2022-10-23T16:05:40;14.30;99.90
28336;DHT22;15592;53.656;7.276;2022-10-23T16:08:06;14.30;99.90
28336;DHT22;15592;53.656;7.276;2022-10-23T16:10:32;14.30;99.90
28336;DHT22;15592;53.656;7.276;2022-10-23T16:12:57;14.30;99.90
28336;DHT22;15592;53.656;7.276;2022-10-23T16:15:23;14.30;99.90
28336;DHT22;15592;53.656;7.276;2022-10-23T16:17:49;14.30;99.90
28336;DHT22;15592;53.656;7.276;2022-10-23T16:20:15;14.20;99.90
28336;DHT22;15592;53.656;7.276;2022-10-23T16:22:40;14.20;99.90
28336;DHT22;15592;53.656;7.276;2022-10-23T16:25:06;14.20;99.90
28336;DHT22;15592;53.656;7.276;2022-10-23T16:27:32;14.20;99.90
28336;DHT22;15592;53.656;7.276;2022-10-23T16:29:57;14.10;99.90
28336;DHT22;15592;53.656;7.276;2022-10-23T16:32:23;14.10;99.90
28336;DHT22;15592;53.656;7.276;2022-10-23T16:34:49;14.10;99.90
28336;DHT22;15592;53.656;7.276;2022-10-23T16:37:14;14.10;99.90
28336;DHT22;15592;53.656;7.276;2022-10-23T16:39:40;14.10;99.90
28336;DHT22;15592;53.656;7.276;2022-10-23T16:42:06;14.10;99.90
28336;DHT22;15592;53.656;7.276;2022-10-23T16:44:31;14.10;99.90
28336;DHT22;15592;53.656;7.276;2022-10-23T16:46:57;14.10;99.90
28336;DHT22;15592;53.656;7.276;2022-10-23T16:49:23;14.10;99.90
28336;DHT22;15592;53.656;7.276;2022-10-23T16:51:48;14.10;99.90
28336;DHT22;15592;53.656;7.276;2022-10-23T16:54:14;14.10;99.90
28336;DHT22;15592;53.656;7.276;2022-10-23T16:56:40;14.10;99.90
28336;DHT22;15592;53.656;7.276;2022-10-23T16:59:05;14.10;99.90
28336;DHT22;15592;53.656;7.276;2022-10-23T17:01:32;14.10;99.90
28336;DHT22;15592;53.656;7.276;2022-10-23T17:03:58;14.10;99.90
28336;DHT22;15592;53.656;7.276;2022-10-23T17:06:29;14.00;99.90
28336;DHT22;15592;53.656;7.276;2022-10-23T17:08:56;14.00;99.90
28336;DHT22;15592;53.656;7.276;2022-10-23T17:11:24;14.00;99.90
28336;DHT22;15592;53.656;7.276;2022-10-23T17:13:58;14.00;99.90
28336;DHT22;15592;53.656;7.276;2022-10-23T17:16:25;14.00;99.90
28336;DHT22;15592;53.656;7.276;2022-10-23T17:18:52;14.00;99.90
28336;DHT22;15592;53.656;7.276;2022-10-23T17:21:19;14.00;99.90
28336;DHT22;15592;53.656;7.276;2022-10-23T17:23:45;14.00;99.90
28336;DHT22;15592;53.656;7.276;2022-10-23T17:26:13;14.00;99.90
28336;DHT22;15592;53.656;7.276;2022-10-23T17:28:39;14.00;99.90
28336;DHT22;15592;53.656;7.276;2022-10-23T17:31:16;14.00;99.90